Time;durP1;ratioP1;P1;durP2;ratioP2;P2;SDS_P1;SDS_P2;PMS_P1;PMS_P2;Temp;Humidity;BMP_temperature;BMP_pressure;BME280_temperature;BME280_humidity;BME280_pressure;Samples;Min_cycle;Max_cycle;Signal;HPM_P1;HPM_P2
2023/07/09 00:00:48;;;;;;;4.07;3.53;;;21.50;96.00;;;;;;4940981;29;20183;-83
2023/07/09 00:03:15;;;;;;;6.13;3.67;;;21.60;96.20;;;;;;4940707;29;20615;-84
2023/07/09 00:05:41;;;;;;;5.07;3.47;;;21.50;96.10;;;;;;4958315;29;20687;-83
2023/07/09 00:08:35;;;;;;;5.38;3.33;;;21.50;96.00;;;;;;4940771;29;20276;-84
2023/07/09 00:13:37;;;;;;;8.35;3.03;;;21.40;96.60;;;;;;5102767;23;20236;-87
2023/07/09 00:16:11;;;;;;;5.43;3.28;;;21.30;96.30;;;;;;4958065;29;20256;-90
2023/07/09 00:18:37;;;;;;;3.88;3.40;;;21.30;96.40;;;;;;4940812;29;20269;-87
2023/07/09 00:21:03;;;;;;;5.82;3.50;;;21.30;96.80;;;;;;4956736;29;20264;-87
2023/07/09 00:23:29;;;;;;;4.47;3.70;;;21.20;96.90;;;;;;4956471;29;20213;-91
2023/07/09 00:25:55;;;;;;;5.93;3.33;;;21.20;96.80;;;;;;4957962;29;20532;-90
2023/07/09 00:28:21;;;;;;;3.90;3.20;;;21.10;96.70;;;;;;4940229;29;20662;-86
2023/07/09 00:30:48;;;;;;;4.82;3.20;;;21.10;96.70;;;;;;4957708;29;20185;-85
2023/07/09 00:33:15;;;;;;;5.20;3.50;;;21.10;97.00;;;;;;4957549;29;20181;-87
2023/07/09 00:35:50;;;;;;;4.47;3.20;;;21.10;96.90;;;;;;4956362;29;20178;-86
2023/07/09 00:38:22;;;;;;;6.40;3.30;;;21.10;96.80;;;;;;4957788;29;20172;-86
2023/07/09 00:41:02;;;;;;;3.97;3.10;;;21.10;97.20;;;;;;4957634;29;20161;-86
2023/07/09 00:43:35;;;;;;;3.50;3.20;;;21.00;96.80;;;;;;4971815;28;20208;-86
2023/07/09 00:46:20;;;;;;;9.57;3.15;;;21.00;97.00;;;;;;4976868;28;20252;-85
2023/07/09 00:48:51;;;;;;;9.82;3.40;;;21.00;97.00;;;;;;4976730;28;20172;-88
2023/07/09 00:51:20;;;;;;;4.05;3.10;;;20.90;97.00;;;;;;4976626;28;20260;-84
2023/07/09 00:53:48;;;;;;;4.25;3.22;;;20.90;97.00;;;;;;4959344;28;20203;-87
2023/07/09 00:56:19;;;;;;;5.05;3.42;;;20.90;97.20;;;;;;4959214;28;20239;-85
2023/07/09 00:58:47;;;;;;;4.45;3.10;;;20.90;97.10;;;;;;4958837;28;20189;-86
2023/07/09 01:01:18;;;;;;;5.68;3.10;;;20.90;97.10;;;;;;4959153;28;20279;-87
2023/07/09 01:03:58;;;;;;;4.78;3.50;;;20.80;97.30;;;;;;4959185;28;20586;-87
2023/07/09 01:06:34;;;;;;;4.63;2.97;;;20.80;97.40;;;;;;4959281;28;20177;-87
2023/07/09 01:09:03;;;;;;;8.38;3.15;;;20.70;97.40;;;;;;4958982;28;20611;-87
2023/07/09 01:11:30;;;;;;;4.07;3.03;;;20.70;97.50;;;;;;4959040;28;20556;-86
2023/07/09 01:13:59;;;;;;;5.05;3.08;;;20.70;97.40;;;;;;4939806;29;20241;-87
2023/07/09 01:16:37;;;;;;;5.20;2.85;;;20.70;97.60;;;;;;4939873;29;20196;-86
2023/07/09 01:19:04;;;;;;;5.32;3.10;;;20.70;97.60;;;;;;4939877;29;20220;-86
2023/07/09 01:21:30;;;;;;;6.55;3.17;;;20.60;98.00;;;;;;4955729;28;20217;-86
2023/07/09 01:23:57;;;;;;;5.68;3.65;;;20.60;97.80;;;;;;4956776;29;20201;-86
2023/07/09 01:26:25;;;;;;;5.75;2.90;;;20.50;97.80;;;;;;4955633;29;20620;-85
2023/07/09 01:28:53;;;;;;;3.55;3.25;;;20.50;97.80;;;;;;4939411;29;20217;-86
2023/07/09 01:31:20;;;;;;;4.53;3.03;;;20.50;98.10;;;;;;4956729;29;20180;-85
2023/07/09 01:33:47;;;;;;;8.10;3.22;;;20.50;98.20;;;;;;4956591;29;20177;-86
2023/07/09 01:36:17;;;;;;;5.03;3.30;;;20.40;98.00;;;;;;4939495;29;20586;-86
2023/07/09 01:38:43;;;;;;;5.20;3.10;;;20.40;98.30;;;;;;4939514;29;20178;-88
2023/07/09 01:41:13;;;;;;;4.53;2.83;;;20.40;98.50;;;;;;4955194;29;20293;-87
2023/07/09 01:43:41;;;;;;;3.55;2.97;;;20.30;98.70;;;;;;4938843;29;20299;-88
2023/07/09 01:46:08;;;;;;;10.00;3.25;;;20.20;98.70;;;;;;4955226;29;20181;-87
2023/07/09 01:48:40;;;;;;;3.47;3.00;;;20.20;99.20;;;;;;4956337;29;20177;-86
2023/07/09 01:51:09;;;;;;;3.40;2.97;;;20.20;98.90;;;;;;4955068;29;20260;-86
2023/07/09 01:53:37;;;;;;;3.97;3.13;;;20.10;99.10;;;;;;4956283;29;20170;-86
2023/07/09 01:56:03;;;;;;;4.18;3.10;;;20.00;99.40;;;;;;4939007;29;20182;-88
2023/07/09 01:58:30;;;;;;;3.83;2.90;;;20.00;99.30;;;;;;4938934;29;20173;-87
2023/07/09 02:00:56;;;;;;;4.85;2.90;;;19.90;99.60;;;;;;4938999;29;20509;-86
2023/07/09 02:03:24;;;;;;;4.72;2.90;;;19.90;99.90;;;;;;4938804;29;20682;-87
2023/07/09 02:05:54;;;;;;;6.05;3.30;;;19.80;99.90;;;;;;4939160;29;20609;-87
2023/07/09 02:08:20;;;;;;;4.43;3.00;;;19.80;99.90;;;;;;4956109;29;20181;-87
2023/07/09 02:10:49;;;;;;;5.07;3.40;;;19.70;99.90;;;;;;4939029;29;20498;-88
2023/07/09 02:13:15;;;;;;;6.10;3.40;;;19.70;99.90;;;;;;4969164;28;20236;-86
2023/07/09 02:15:43;;;;;;;4.97;3.33;;;19.70;99.90;;;;;;4975342;28;20180;-87
2023/07/09 02:18:13;;;;;;;5.78;3.35;;;19.60;99.90;;;;;;4974228;28;20179;-87
2023/07/09 02:20:39;;;;;;;5.47;3.60;;;19.70;99.90;;;;;;4975330;28;20176;-87
2023/07/09 02:23:07;;;;;;;9.15;3.60;;;19.50;99.90;;;;;;4973757;28;20258;-87
2023/07/09 02:25:34;;;;;;;5.55;3.40;;;19.50;99.90;;;;;;4958147;28;20180;-88
2023/07/09 02:27:59;;;;;;;4.80;3.70;;;19.40;99.90;;;;;;4973920;28;20184;-85
2023/07/09 02:30:25;;;;;;;6.00;3.55;;;19.40;99.90;;;;;;4957967;28;20188;-86
2023/07/09 02:32:54;;;;;;;6.38;3.65;;;19.30;99.90;;;;;;4957547;28;20207;-87
2023/07/09 02:35:20;;;;;;;5.55;3.53;;;19.30;99.90;;;;;;4957719;28;20215;-86
2023/07/09 02:37:46;;;;;;;5.40;3.65;;;19.20;99.90;;;;;;4975198;28;20176;-87
2023/07/09 02:40:13;;;;;;;5.10;3.30;;;19.10;99.90;;;;;;4958053;28;20184;-87
2023/07/09 02:42:38;;;;;;;5.85;3.70;;;19.10;99.90;;;;;;4957298;28;20674;-86
2023/07/09 02:45:05;;;;;;;7.93;3.90;;;19.10;99.90;;;;;;4957670;28;20177;-88
2023/07/09 02:47:31;;;;;;;6.68;3.72;;;19.10;99.90;;;;;;4973951;28;20184;-87
2023/07/09 02:49:56;;;;;;;4.68;3.58;;;19.00;99.90;;;;;;4957465;28;20311;-86
2023/07/09 02:52:22;;;;;;;4.88;4.07;;;19.00;99.90;;;;;;4957624;28;20235;-87
2023/07/09 02:54:48;;;;;;;6.32;4.05;;;19.00;99.90;;;;;;4957565;28;20191;-86
2023/07/09 02:57:13;;;;;;;4.10;3.40;;;18.90;99.90;;;;;;4974847;28;20168;-86
2023/07/09 02:59:39;;;;;;;4.97;3.70;;;18.90;99.90;;;;;;4957614;28;20184;-86
2023/07/09 03:02:05;;;;;;;11.60;3.53;;;18.80;99.90;;;;;;4957462;28;20185;-86
2023/07/09 03:04:32;;;;;;;5.53;3.97;;;18.70;99.90;;;;;;4957507;28;20184;-87
2023/07/09 03:06:59;;;;;;;7.30;3.67;;;18.80;99.90;;;;;;4974942;28;20167;-86
2023/07/09 03:09:26;;;;;;;5.80;3.90;;;18.80;99.90;;;;;;4957539;28;20187;-86
2023/07/09 03:11:52;;;;;;;4.72;3.63;;;18.60;99.90;;;;;;4957087;28;20615;-85
2023/07/09 03:14:17;;;;;;;4.70;3.67;;;18.60;99.90;;;;;;4974598;28;20169;-86
2023/07/09 03:16:43;;;;;;;8.73;4.10;;;18.70;99.90;;;;;;4957571;28;20185;-88
2023/07/09 03:19:09;;;;;;;5.57;3.83;;;18.60;99.90;;;;;;4957740;28;20624;-86
2023/07/09 03:21:35;;;;;;;5.25;3.58;;;18.60;99.90;;;;;;4957212;28;20185;-88
2023/07/09 03:24:01;;;;;;;4.05;3.53;;;18.50;99.90;;;;;;4957255;28;20220;-87
2023/07/09 03:26:28;;;;;;;7.32;4.30;;;18.40;99.90;;;;;;4957016;28;20181;-87
2023/07/09 03:28:54;;;;;;;5.35;3.88;;;18.30;99.90;;;;;;4974476;28;20169;-86
2023/07/09 03:31:20;;;;;;;5.53;4.00;;;18.30;99.90;;;;;;4973609;28;20283;-86
2023/07/09 03:33:47;;;;;;;6.03;3.85;;;18.20;99.90;;;;;;4974603;28;20209;-88
2023/07/09 03:36:13;;;;;;;6.93;3.75;;;18.30;99.90;;;;;;4974737;28;20184;-87
2023/07/09 03:38:39;;;;;;;6.93;3.90;;;18.30;99.90;;;;;;4973651;28;20180;-87
2023/07/09 03:41:06;;;;;;;9.77;3.80;;;18.30;99.90;;;;;;4973360;28;20203;-87
2023/07/09 03:43:31;;;;;;;6.80;4.30;;;18.20;99.90;;;;;;4974265;28;20306;-88
2023/07/09 03:45:57;;;;;;;5.40;3.75;;;18.20;99.90;;;;;;4959551;28;20615;-88
2023/07/09 03:48:23;;;;;;;4.22;3.72;;;18.20;99.90;;;;;;4960823;28;20176;-87
2023/07/09 03:50:49;;;;;;;9.02;4.22;;;18.10;99.90;;;;;;4960527;28;20271;-92
2023/07/09 03:53:16;;;;;;;6.05;4.20;;;18.10;99.90;;;;;;4977760;28;20187;-87
2023/07/09 03:55:43;;;;;;;4.07;3.67;;;18.10;99.90;;;;;;4978014;28;20191;-87
2023/07/09 03:58:09;;;;;;;4.93;3.95;;;18.10;99.90;;;;;;4960437;28;20256;-88
2023/07/09 04:00:35;;;;;;;7.80;3.63;;;18.10;99.90;;;;;;4976363;28;20188;-87
2023/07/09 04:03:01;;;;;;;8.63;4.13;;;18.10;99.90;;;;;;4960182;28;20220;-87
2023/07/09 04:05:28;;;;;;;8.82;4.00;;;18.10;99.90;;;;;;4960505;28;20176;-86
2023/07/09 04:07:54;;;;;;;6.13;3.72;;;18.10;99.90;;;;;;4977932;28;20165;-88
2023/07/09 04:10:20;;;;;;;4.28;3.83;;;18.20;99.90;;;;;;4977618;28;20191;-86
2023/07/09 04:12:46;;;;;;;4.70;3.67;;;18.30;99.90;;;;;;4977530;28;20663;-88
2023/07/09 04:15:14;;;;;;;6.88;3.72;;;18.30;99.90;;;;;;4960327;28;20188;-86
2023/07/09 04:17:40;;;;;;;4.97;3.83;;;18.30;99.90;;;;;;4976356;28;20180;-85
2023/07/09 04:20:08;;;;;;;7.47;3.75;;;18.40;99.90;;;;;;4977679;28;20208;-86
2023/07/09 04:22:35;;;;;;;7.18;3.67;;;18.40;99.90;;;;;;4959875;28;20204;-86
2023/07/09 04:25:03;;;;;;;9.10;4.10;;;18.50;99.90;;;;;;4976275;28;20191;-91
2023/07/09 04:27:29;;;;;;;6.43;3.75;;;18.50;99.90;;;;;;4977168;28;20216;-91
2023/07/09 04:29:55;;;;;;;7.70;3.53;;;18.60;99.90;;;;;;4959922;28;20694;-92
2023/07/09 04:32:21;;;;;;;4.90;3.97;;;18.60;99.90;;;;;;4959946;28;20181;-89
2023/07/09 04:34:47;;;;;;;4.07;3.53;;;18.60;99.90;;;;;;4959935;28;20235;-88
2023/07/09 04:37:18;;;;;;;4.38;3.80;;;18.70;99.90;;;;;;4959988;28;20185;-87
2023/07/09 04:39:45;;;;;;;6.22;3.90;;;18.70;99.90;;;;;;4959827;28;20662;-86
2023/07/09 04:42:16;;;;;;;4.45;3.55;;;18.80;99.90;;;;;;4975748;28;20188;-86
2023/07/09 04:44:42;;;;;;;5.78;3.67;;;18.80;99.90;;;;;;4959533;28;20181;-85
2023/07/09 04:47:08;;;;;;;6.78;3.65;;;18.90;99.90;;;;;;4977084;28;20169;-86
2023/07/09 04:49:33;;;;;;;5.38;3.80;;;19.00;99.90;;;;;;4959632;28;20180;-85
2023/07/09 04:52:00;;;;;;;6.25;3.67;;;19.20;99.90;;;;;;4977013;28;20176;-86
2023/07/09 04:54:27;;;;;;;9.50;3.90;;;19.30;99.90;;;;;;4975607;28;20649;-86
2023/07/09 04:56:53;;;;;;;5.07;3.63;;;19.40;99.90;;;;;;4959454;28;20208;-88
2023/07/09 04:59:19;;;;;;;4.93;3.50;;;19.50;99.90;;;;;;4976376;28;20596;-86
2023/07/09 05:01:46;;;;;;;5.80;3.70;;;19.60;99.90;;;;;;4959460;28;20584;-86
2023/07/09 05:04:11;;;;;;;4.47;3.38;;;19.80;99.90;;;;;;4976534;28;20639;-86
2023/07/09 05:06:38;;;;;;;5.28;3.63;;;19.90;99.90;;;;;;4976625;28;20200;-88
2023/07/09 05:09:04;;;;;;;4.75;3.33;;;20.00;99.90;;;;;;4959429;28;20205;-91
2023/07/09 05:11:34;;;;;;;4.13;3.60;;;20.00;99.90;;;;;;4959030;28;20239;-87
2023/07/09 05:14:00;;;;;;;4.78;3.70;;;20.10;99.90;;;;;;4958723;28;20192;-87
2023/07/09 05:16:27;;;;;;;4.10;3.47;;;20.10;99.90;;;;;;4976486;28;20559;-92
2023/07/09 05:18:53;;;;;;;4.53;3.60;;;20.10;99.90;;;;;;4975164;28;20600;-88
2023/07/09 05:21:19;;;;;;;7.32;3.53;;;20.10;99.90;;;;;;4976488;28;20275;-88
2023/07/09 05:23:45;;;;;;;4.65;3.60;;;20.20;99.90;;;;;;4959108;28;20659;-87
2023/07/09 05:26:11;;;;;;;7.97;3.67;;;20.20;99.90;;;;;;4976251;28;20223;-84
2023/07/09 05:28:37;;;;;;;5.97;3.95;;;20.30;99.90;;;;;;4976004;28;20180;-86
2023/07/09 05:31:04;;;;;;;5.60;3.83;;;20.40;99.90;;;;;;4974841;28;20180;-87
2023/07/09 05:33:30;;;;;;;5.97;4.40;;;20.40;99.90;;;;;;4958761;28;20187;-86
2023/07/09 05:35:56;;;;;;;8.98;3.92;;;20.50;99.90;;;;;;4974838;28;20184;-86
2023/07/09 05:38:21;;;;;;;7.95;3.83;;;20.60;99.90;;;;;;4958754;28;20180;-86
2023/07/09 05:40:47;;;;;;;5.00;3.30;;;20.60;99.90;;;;;;4973903;28;20195;-87
2023/07/09 05:43:13;;;;;;;5.50;3.72;;;20.70;99.90;;;;;;4957962;28;20251;-93
2023/07/09 05:45:40;;;;;;;5.78;3.90;;;20.80;99.90;;;;;;4958602;28;20570;-89
2023/07/09 05:48:06;;;;;;;3.80;3.33;;;20.80;99.90;;;;;;4975845;28;20169;-87
2023/07/09 05:50:34;;;;;;;6.63;3.80;;;20.90;99.90;;;;;;4975873;28;20551;-86
2023/07/09 05:52:59;;;;;;;4.53;3.80;;;20.90;99.90;;;;;;4958636;28;20181;-86
2023/07/09 05:55:25;;;;;;;5.30;3.70;;;21.00;99.90;;;;;;4975823;28;20179;-88
2023/07/09 05:57:53;;;;;;;5.78;3.80;;;21.00;99.90;;;;;;4974491;28;20615;-86
2023/07/09 06:00:18;;;;;;;4.85;3.70;;;21.10;99.90;;;;;;4958533;28;20188;-88
2023/07/09 06:02:44;;;;;;;6.20;3.63;;;21.20;99.90;;;;;;4969002;28;20540;-87
2023/07/09 06:05:10;;;;;;;4.63;3.55;;;21.20;99.90;;;;;;4939297;29;20303;-87
2023/07/09 06:07:39;;;;;;;4.80;3.60;;;21.20;99.90;;;;;;4965864;28;20220;-89
2023/07/09 06:10:07;;;;;;;6.57;3.60;;;21.40;99.90;;;;;;4975895;28;20185;-87
2023/07/09 06:12:33;;;;;;;6.13;3.70;;;21.40;99.90;;;;;;4975322;28;20231;-87
2023/07/09 06:14:59;;;;;;;6.88;3.97;;;21.50;99.90;;;;;;4957431;28;20180;-89
2023/07/09 06:17:26;;;;;;;5.72;3.92;;;21.60;99.90;;;;;;4975446;28;20177;-87
2023/07/09 06:19:52;;;;;;;7.30;4.10;;;21.60;99.90;;;;;;4975416;28;20200;-89
2023/07/09 06:22:17;;;;;;;4.90;3.85;;;21.70;99.90;;;;;;4975331;28;20223;-90
2023/07/09 06:24:45;;;;;;;5.00;3.83;;;21.80;99.90;;;;;;4975344;28;20232;-91
2023/07/09 06:27:15;;;;;;;6.40;3.50;;;21.90;99.90;;;;;;4958153;28;20517;-88
2023/07/09 06:29:41;;;;;;;4.97;3.45;;;22.00;99.90;;;;;;4975081;28;20183;-92
2023/07/09 06:32:07;;;;;;;7.75;4.18;;;22.00;99.90;;;;;;4958092;28;20527;-86
2023/07/09 06:34:32;;;;;;;11.25;4.10;;;22.10;99.90;;;;;;4974069;28;20263;-88
2023/07/09 06:36:58;;;;;;;5.35;3.55;;;22.20;99.90;;;;;;4975364;28;20188;-85
2023/07/09 06:39:24;;;;;;;5.90;3.78;;;22.20;99.90;;;;;;4958027;28;20689;-85
2023/07/09 06:41:50;;;;;;;6.75;3.70;;;22.30;99.90;;;;;;4958198;28;20203;-87
2023/07/09 06:44:15;;;;;;;5.38;3.88;;;22.40;99.90;;;;;;4957582;28;20212;-86
2023/07/09 06:46:41;;;;;;;5.18;3.90;;;22.50;99.90;;;;;;4975143;28;20177;-87
2023/07/09 06:49:07;;;;;;;5.65;3.75;;;22.60;99.90;;;;;;4975074;28;20207;-85
2023/07/09 06:51:33;;;;;;;4.93;3.85;;;22.80;99.90;;;;;;4957638;28;20604;-86
2023/07/09 06:53:59;;;;;;;7.45;4.13;;;22.90;99.90;;;;;;4957947;28;20183;-84
2023/07/09 06:56:25;;;;;;;6.72;4.10;;;23.00;99.90;;;;;;4975219;28;20181;-89
2023/07/09 06:58:50;;;;;;;6.13;4.22;;;23.20;99.00;;;;;;4957692;28;20173;-87
2023/07/09 07:01:16;;;;;;;5.43;3.92;;;23.30;99.50;;;;;;4975132;28;20538;-91
2023/07/09 07:03:42;;;;;;;7.32;3.83;;;23.50;99.60;;;;;;4957554;28;20634;-91
2023/07/09 07:06:09;;;;;;;6.55;4.07;;;23.60;99.70;;;;;;4957750;28;20180;-90
2023/07/09 07:08:35;;;;;;;4.97;4.20;;;23.70;98.70;;;;;;4974959;28;20173;-91
2023/07/09 07:11:04;;;;;;;7.30;3.80;;;23.90;98.60;;;;;;4974990;28;20220;-84
2023/07/09 07:13:31;;;;;;;4.90;3.80;;;24.10;99.20;;;;;;4974442;28;20228;-85
2023/07/09 07:15:56;;;;;;;5.28;3.92;;;24.20;98.50;;;;;;4973328;28;20188;-84
2023/07/09 07:18:23;;;;;;;4.22;3.67;;;24.40;97.50;;;;;;4957701;28;20192;-85
2023/07/09 07:20:49;;;;;;;6.22;3.85;;;24.60;98.20;;;;;;4978459;28;20153;-85
2023/07/09 07:23:15;;;;;;;4.25;3.67;;;24.80;96.90;;;;;;4961172;28;20292;-84
2023/07/09 07:25:41;;;;;;;4.43;3.85;;;24.90;97.10;;;;;;4978769;28;20316;-86
2023/07/09 07:28:07;;;;;;;6.25;3.65;;;25.00;96.40;;;;;;4976882;28;20177;-84
2023/07/09 07:30:33;;;;;;;4.80;4.10;;;25.20;96.10;;;;;;4978361;28;20176;-85
2023/07/09 07:32:58;;;;;;;8.23;4.03;;;25.30;97.30;;;;;;4961048;28;20243;-84
2023/07/09 07:35:24;;;;;;;4.28;3.53;;;25.40;96.30;;;;;;4978332;28;20184;-86
2023/07/09 07:37:51;;;;;;;4.25;3.75;;;25.60;96.50;;;;;;4978270;28;20177;-85
2023/07/09 07:40:17;;;;;;;5.50;3.70;;;25.70;96.40;;;;;;4960837;28;20247;-86
2023/07/09 07:42:42;;;;;;;8.98;4.20;;;25.80;95.80;;;;;;4960716;28;20212;-86
2023/07/09 07:45:09;;;;;;;6.50;4.22;;;25.90;95.20;;;;;;4978212;28;20177;-89
2023/07/09 07:47:36;;;;;;;5.47;3.60;;;26.00;95.60;;;;;;4960834;28;20288;-91
2023/07/09 07:50:01;;;;;;;6.20;4.25;;;26.10;96.00;;;;;;4960620;28;20173;-86
2023/07/09 07:52:28;;;;;;;4.57;3.78;;;26.20;95.10;;;;;;4978079;28;20180;-86
2023/07/09 07:54:54;;;;;;;4.65;3.83;;;26.20;95.10;;;;;;4960598;28;20184;-84
2023/07/09 07:57:24;;;;;;;4.57;3.78;;;26.30;95.30;;;;;;4978017;28;20173;-85
2023/07/09 07:59:50;;;;;;;6.78;3.78;;;26.30;95.90;;;;;;4960290;28;20192;-85
2023/07/09 08:02:15;;;;;;;5.40;3.92;;;26.40;95.10;;;;;;4960384;28;20177;-85
2023/07/09 08:04:41;;;;;;;6.03;3.83;;;26.50;95.70;;;;;;4960494;28;20188;-85
2023/07/09 08:07:09;;;;;;;5.43;3.42;;;26.50;94.40;;;;;;4976617;28;20179;-85
2023/07/09 08:09:35;;;;;;;5.97;3.85;;;26.60;96.80;;;;;;4977689;28;20172;-84
2023/07/09 08:12:08;;;;;;;5.25;4.38;;;26.70;96.50;;;;;;4977540;28;20734;-85
2023/07/09 08:14:34;;;;;;;6.57;4.85;;;26.70;96.50;;;;;;4959661;28;20194;-87
2023/07/09 08:17:03;;;;;;;5.40;3.88;;;26.80;96.40;;;;;;4976354;28;20207;-87
2023/07/09 08:19:28;;;;;;;4.18;3.78;;;26.90;97.40;;;;;;4960276;28;20272;-85
2023/07/09 08:21:54;;;;;;;5.90;3.45;;;27.00;95.70;;;;;;4960235;28;20691;-85
2023/07/09 08:24:20;;;;;;;4.43;3.70;;;27.10;96.80;;;;;;4960005;28;20208;-85
2023/07/09 08:26:45;;;;;;;6.50;4.03;;;27.00;95.20;;;;;;4977380;28;20216;-85
2023/07/09 08:29:11;;;;;;;6.88;3.97;;;27.00;95.10;;;;;;4977149;28;20504;-85
2023/07/09 08:31:37;;;;;;;5.07;4.00;;;27.20;96.00;;;;;;4959495;28;20176;-87
2023/07/09 08:34:06;;;;;;;6.28;3.72;;;27.20;96.70;;;;;;4976780;28;20228;-86
2023/07/09 08:36:31;;;;;;;6.05;3.67;;;27.30;97.00;;;;;;4959843;28;20176;-85
2023/07/09 08:38:57;;;;;;;7.40;3.60;;;27.50;96.60;;;;;;4976893;28;20239;-85
2023/07/09 08:41:48;;;;;;;5.28;3.55;;;27.60;96.50;;;;;;4976939;28;20200;-85
2023/07/09 08:44:46;;;;;;;6.22;4.03;;;27.70;96.10;;;;;;4975393;28;20209;-85
2023/07/09 08:47:30;;;;;;;4.85;3.85;;;27.80;97.00;;;;;;4959719;28;20540;-85
2023/07/09 08:50:05;;;;;;;9.18;4.30;;;27.90;96.90;;;;;;4977008;28;20164;-87
2023/07/09 08:52:43;;;;;;;8.38;4.03;;;28.00;95.20;;;;;;4959320;28;20195;-89
2023/07/09 08:55:16;;;;;;;5.03;4.00;;;28.10;95.80;;;;;;4976887;28;20351;-92
2023/07/09 08:57:54;;;;;;;8.20;4.40;;;28.10;94.50;;;;;;4959434;28;20176;-88
2023/07/09 09:00:33;;;;;;;5.75;4.18;;;28.20;95.80;;;;;;4976551;28;20175;-88
2023/07/09 09:03:13;;;;;;;7.30;4.10;;;28.20;94.60;;;;;;4976760;28;20204;-88
2023/07/09 09:05:43;;;;;;;6.38;3.92;;;28.30;93.70;;;;;;4976759;28;20183;-89
2023/07/09 09:08:20;;;;;;;5.60;4.07;;;28.30;94.70;;;;;;4959467;28;20256;-87
2023/07/09 09:11:06;;;;;;;7.25;3.67;;;28.40;94.90;;;;;;4976911;28;20296;-87
2023/07/09 09:13:33;;;;;;;5.43;3.58;;;28.50;95.50;;;;;;4976075;28;20232;-87
2023/07/09 09:16:05;;;;;;;6.20;3.78;;;28.60;94.40;;;;;;4959297;28;20173;-91
2023/07/09 09:18:41;;;;;;;6.28;4.00;;;28.70;94.30;;;;;;4959190;28;20176;-85
2023/07/09 09:21:22;;;;;;;5.88;3.90;;;28.80;93.50;;;;;;4976742;28;20192;-88
2023/07/09 09:24:01;;;;;;;4.30;3.90;;;28.80;93.40;;;;;;4959152;28;20212;-86
2023/07/09 09:26:31;;;;;;;6.43;3.88;;;28.90;93.90;;;;;;4976517;28;20246;-87
2023/07/09 09:28:57;;;;;;;3.70;3.40;;;29.00;94.50;;;;;;4975899;28;20168;-86
2023/07/09 09:31:27;;;;;;;6.22;4.15;;;29.10;94.30;;;;;;4959282;28;20179;-91
2023/07/09 09:33:52;;;;;;;6.30;3.97;;;29.10;92.80;;;;;;4976042;28;20615;-90
2023/07/09 09:36:26;;;;;;;7.32;4.22;;;29.20;93.20;;;;;;4959043;28;20191;-85
2023/07/09 09:38:53;;;;;;;5.85;3.85;;;29.30;92.90;;;;;;4958891;28;20239;-91
2023/07/09 09:41:22;;;;;;;4.85;3.45;;;29.40;93.20;;;;;;4958707;28;20184;-86
2023/07/09 09:43:51;;;;;;;5.22;3.70;;;29.50;93.20;;;;;;4957626;28;20223;-85
2023/07/09 09:46:23;;;;;;;4.25;3.53;;;29.50;91.90;;;;;;4958678;28;20549;-86
2023/07/09 09:48:54;;;;;;;4.63;3.63;;;29.60;92.60;;;;;;4958709;28;20274;-85
2023/07/09 09:51:20;;;;;;;6.32;3.90;;;29.70;91.80;;;;;;4958863;28;20177;-86
2023/07/09 09:53:52;;;;;;;4.15;3.42;;;29.80;91.30;;;;;;4958854;28;20183;-86
2023/07/09 09:56:34;;;;;;;5.13;3.60;;;29.80;91.30;;;;;;4958731;28;20176;-85
2023/07/09 09:59:00;;;;;;;4.45;3.70;;;29.90;90.80;;;;;;4975688;28;20172;-86
2023/07/09 10:01:32;;;;;;;4.35;3.75;;;29.90;91.50;;;;;;4958596;28;20176;-85
2023/07/09 10:03:59;;;;;;;6.13;3.45;;;30.00;91.80;;;;;;4958453;28;20203;-86
2023/07/09 10:06:36;;;;;;;6.03;3.90;;;30.10;92.10;;;;;;4958372;28;20243;-86
2023/07/09 10:09:24;;;;;;;4.38;3.90;;;30.20;92.20;;;;;;4958536;28;20202;-89
2023/07/09 10:12:21;;;;;;;7.55;3.70;;;30.20;90.70;;;;;;4975436;28;20631;-86
2023/07/09 10:14:56;;;;;;;4.00;3.60;;;30.40;91.40;;;;;;4949598;28;20196;-87
2023/07/09 10:17:30;;;;;;;6.30;4.00;;;30.40;90.90;;;;;;4974435;28;20669;-85
2023/07/09 10:20:02;;;;;;;4.10;3.70;;;30.40;90.60;;;;;;4974559;28;20204;-85
2023/07/09 10:22:40;;;;;;;6.57;3.90;;;30.50;90.00;;;;;;4975407;28;20164;-85
2023/07/09 10:25:19;;;;;;;5.03;3.50;;;30.60;90.10;;;;;;4958202;28;20183;-87
2023/07/09 10:28:33;;;;;;;5.43;3.60;;;30.70;90.20;;;;;;4975563;28;20194;-86
2023/07/09 10:31:08;;;;;;;5.63;3.70;;;30.70;90.40;;;;;;4958085;28;20187;-88
2023/07/09 10:33:49;;;;;;;9.50;3.42;;;30.80;89.20;;;;;;4973805;28;20288;-86
2023/07/09 10:36:34;;;;;;;4.88;3.65;;;30.90;89.80;;;;;;4958170;28;20180;-87
2023/07/09 10:39:09;;;;;;;7.05;4.30;;;31.00;89.80;;;;;;4973865;28;20184;-88
2023/07/09 10:41:37;;;;;;;5.95;3.90;;;31.10;90.00;;;;;;4957930;28;20242;-87
2023/07/09 10:44:16;;;;;;;6.05;3.90;;;31.20;88.60;;;;;;4957748;28;20219;-88
2023/07/09 10:46:45;;;;;;;5.35;3.80;;;31.20;89.80;;;;;;4975442;28;20195;-89
2023/07/09 10:49:14;;;;;;;6.25;3.70;;;31.30;87.60;;;;;;4975079;28;20176;-86
2023/07/09 10:51:59;;;;;;;6.20;3.75;;;31.40;89.30;;;;;;4975114;28;20623;-90
2023/07/09 10:55:01;;;;;;;4.13;3.70;;;31.40;87.60;;;;;;4976521;28;20175;-86
2023/07/09 10:57:54;;;;;;;4.15;3.30;;;31.40;90.60;;;;;;4961783;28;20174;-88
2023/07/09 11:00:24;;;;;;;6.80;3.78;;;31.40;88.20;;;;;;4978796;28;20553;-86
2023/07/09 11:02:59;;;;;;;5.05;3.47;;;31.40;86.30;;;;;;4978789;28;20234;-84
2023/07/09 11:05:25;;;;;;;4.82;3.78;;;31.50;87.90;;;;;;4961852;28;20172;-86
2023/07/09 11:08:04;;;;;;;4.30;3.70;;;31.60;86.70;;;;;;4961627;28;20315;-85
2023/07/09 11:10:34;;;;;;;5.57;3.63;;;31.60;85.40;;;;;;4961876;28;20187;-85
2023/07/09 11:13:09;;;;;;;5.35;3.78;;;31.50;84.40;;;;;;4961276;28;20254;-85
2023/07/09 11:15:45;;;;;;;5.20;3.75;;;31.60;82.00;;;;;;4977457;28;20168;-86
2023/07/09 11:18:39;;;;;;;5.57;3.60;;;31.60;83.00;;;;;;4977576;28;20176;-85
2023/07/09 11:21:16;;;;;;;6.95;3.85;;;31.70;86.60;;;;;;4959255;28;20188;-85
2023/07/09 11:23:53;;;;;;;4.47;4.03;;;31.70;86.50;;;;;;4978768;28;20642;-89
2023/07/09 11:26:26;;;;;;;4.90;3.45;;;31.70;84.50;;;;;;4961510;28;20176;-87
2023/07/09 11:29:02;;;;;;;4.10;3.65;;;31.80;85.20;;;;;;4961180;28;20176;-85
2023/07/09 11:31:40;;;;;;;4.78;3.95;;;31.90;82.30;;;;;;4977210;28;20172;-86
2023/07/09 11:34:18;;;;;;;5.05;3.65;;;31.90;82.70;;;;;;4978527;28;20180;-86
2023/07/09 11:36:54;;;;;;;5.45;3.60;;;31.90;80.60;;;;;;4961361;28;20168;-85
2023/07/09 11:39:26;;;;;;;4.45;3.45;;;32.00;81.30;;;;;;4977028;28;20184;-86
2023/07/09 11:41:53;;;;;;;3.63;3.05;;;32.00;82.00;;;;;;4961101;28;20223;-86
2023/07/09 11:44:29;;;;;;;4.75;3.75;;;31.90;80.80;;;;;;4960678;28;20266;-88
2023/07/09 11:47:19;;;;;;;5.03;3.78;;;32.00;81.20;;;;;;4978897;28;20168;-85
2023/07/09 11:50:10;;;;;;;6.50;3.65;;;32.10;81.20;;;;;;4961076;28;20262;-85
2023/07/09 11:52:40;;;;;;;6.55;4.00;;;32.20;80.20;;;;;;4961225;28;20250;-85
2023/07/09 11:55:50;;;;;;;6.28;3.70;;;32.30;80.50;;;;;;4960569;28;20175;-85
2023/07/09 11:58:18;;;;;;;5.35;3.80;;;32.40;83.10;;;;;;4976700;28;20219;-84
2023/07/09 12:00:56;;;;;;;5.00;3.67;;;32.50;82.00;;;;;;4977806;28;20180;-85
2023/07/09 12:03:34;;;;;;;4.78;3.33;;;32.50;81.00;;;;;;4960519;28;20290;-87
2023/07/09 12:06:27;;;;;;;4.82;3.85;;;32.60;82.30;;;;;;4959773;28;20180;-87
2023/07/09 12:08:54;;;;;;;4.75;3.85;;;32.60;79.50;;;;;;4959016;28;20655;-86
2023/07/09 12:11:27;;;;;;;8.60;3.85;;;32.70;80.00;;;;;;4960593;28;20184;-87
2023/07/09 12:13:54;;;;;;;6.43;3.60;;;32.70;79.40;;;;;;4977369;28;20240;-85
2023/07/09 12:16:22;;;;;;;6.03;4.00;;;32.70;78.70;;;;;;4960181;28;20180;-85
2023/07/09 12:18:48;;;;;;;4.65;3.70;;;32.70;76.20;;;;;;4976541;28;20279;-86
2023/07/09 12:21:14;;;;;;;5.35;4.05;;;32.80;78.30;;;;;;4976551;28;20615;-86
2023/07/09 12:23:40;;;;;;;3.97;3.42;;;32.70;79.80;;;;;;4960326;28;20207;-87
2023/07/09 12:26:11;;;;;;;6.63;3.92;;;32.70;77.00;;;;;;4977544;28;20179;-87
2023/07/09 12:28:37;;;;;;;4.60;3.75;;;32.70;77.60;;;;;;4960294;28;20238;-86
2023/07/09 12:31:02;;;;;;;6.20;3.92;;;32.70;77.60;;;;;;4975976;28;20180;-86
2023/07/09 12:33:28;;;;;;;7.35;3.95;;;32.70;77.10;;;;;;4976192;28;20172;-86
2023/07/09 12:35:58;;;;;;;6.25;4.00;;;32.70;78.00;;;;;;4960099;28;20191;-86
2023/07/09 12:38:26;;;;;;;4.22;3.28;;;32.70;78.50;;;;;;4976003;28;20266;-87
2023/07/09 12:40:53;;;;;;;4.10;3.47;;;32.80;83.00;;;;;;4959930;28;20739;-85
2023/07/09 12:43:33;;;;;;;5.43;3.35;;;32.80;85.10;;;;;;4977004;28;20231;-87
2023/07/09 12:46:00;;;;;;;4.43;3.80;;;32.90;82.00;;;;;;4948792;28;20224;-84
2023/07/09 12:48:28;;;;;;;5.75;3.90;;;33.00;83.50;;;;;;4968209;28;20171;-92
2023/07/09 12:50:59;;;;;;;4.72;3.38;;;33.00;80.60;;;;;;4983402;28;20177;-90
2023/07/09 12:53:28;;;;;;;4.88;3.92;;;33.10;80.00;;;;;;4973887;28;20538;-90
2023/07/09 12:56:00;;;;;;;7.05;4.22;;;33.10;78.10;;;;;;4976138;28;20217;-89
2023/07/09 12:58:31;;;;;;;4.35;3.92;;;33.10;77.20;;;;;;4992264;28;20180;-92
2023/07/09 13:00:59;;;;;;;4.10;3.58;;;33.00;75.10;;;;;;4975621;28;20172;-88